Airfield :
LOGIN :

Register | Disclaimer

   EN    FR    IT 

 










Legend :    VFR   Marginal VFR   IFR   Intensive IFR   Very Intensive IFR
Visi :
Ceiling :
>= 8 km
>= 3000ft
5 to 8 km
1000 to 3000 ft
1500m to 5 km
500 to 1000 ft
800 to 1500m
200 to 500 ft
< 800m
< 200 ft
Symbols :   Thunderstorms  Fog  Heavy snow  Heavy precipitations  Wind > 20 kt
SIGMETs :     Misc.  Thunderstorms  Icing  Turbulence  Mountain Waves  Volcanic Ashes







- Airport Elevation : 751 ft
- IATA code : ENC
- Download approach charts


LFSN - Nancy Essey

EXPIRED METARs :
  • 241430Z AUTO VRB05KT CAVOK 27/11 Q1017
  • 241400Z AUTO 28010KT 240V340 CAVOK 27/11 Q1017
  • 241330Z AUTO 29006G20KT 230V360 CAVOK 27/11 Q1017
  • 241300Z AUTO VRB06KT CAVOK 26/10 Q1017
  • 241230Z AUTO 24008KT 200V300 9999 NCD 26/10 Q1018
  • 241200Z AUTO 27009KT 230V330 9999 NCD 25/11 Q1018

Expired Forecast.
No reported NOTAMs for that airfield.
1 SIGMET reported for the Reims FIR (LFEE) :
 
Severe turbulence
LFEE SIGMET 1 VALID 250000/250400 LFPW
LFEE REIMS FIR/UIR SEV TURB FCST WI N4645 E00445 - N4730 E00415 - N4830 E00530 - N4900 E00445 - N4930 E00600 - N4915 E00715 - N4645 E00530 FL300/370 MOV SE 15KT NC=



MET'MAP, your aeronautical weather chart ! - Copyright ORBIFLY December 2007 - Disclaimer

ORBIFLY MET'MAP TEAM :

Programming & Development : Alexandra Zaïnal
Concept & Development : Baudouin d'Aumeries
Co-Development & Prog : Marc-Olivier Méhu
Technical & hardware support : Manuel Goepfert

Contact : metmap@orbifly.com




SOURCES & CREDITS :

   NOAA